BIKF

Keflavik International Airport

Reykjavík, Iceland

BIKF 102330Z 02006KT CAVOK M05/M09 Q1005

Observed Flight Rules
Dec-10 @ 23:30 UTC (48 minutes ago) Visual Flight Rules
Wind Visibility Clouds
20° at 6 knots 10,000+ meters
  • Clear skies
Temperatures Readings
Current -5°C / 23°F
Dewpoint -9°C / 16°F
Humidity 74%
Altimeter 29.68" Hg
Pressure 1005 hPa
Elevation 54
Observed Flight Rules
Dec-10 @ 23:30 UTC
(48 minutes ago)
VFR
Wind Visibility
20° at 6 knots 10,000+ meters
Clouds
  • Clear skies
Temperature Dewpoint
-5°C / 23°F -9°C / 16°F
Humidity Altimeter Pressure
74% 29.68" Hg 1005 hPa